createdAt,value
2023-05-05T00:00:42.514Z,424.00
2023-05-05T00:01:42.544Z,424.00
2023-05-05T00:02:42.683Z,424.00
2023-05-05T00:03:42.833Z,424.00
2023-05-05T00:04:42.674Z,424.00
2023-05-05T00:05:42.708Z,425.00
2023-05-05T00:06:42.758Z,425.00
2023-05-05T00:07:42.776Z,424.00
2023-05-05T00:08:42.829Z,426.00
2023-05-05T00:09:42.866Z,427.00
2023-05-05T00:10:42.910Z,428.00
2023-05-05T00:11:42.956Z,427.00
2023-05-05T00:12:43.129Z,428.00
2023-05-05T00:13:43.110Z,429.00
2023-05-05T00:14:43.131Z,429.00
2023-05-05T00:15:43.141Z,430.00
2023-05-05T00:16:43.269Z,430.00
2023-05-05T00:17:43.331Z,428.00
2023-05-05T00:18:43.319Z,428.00
2023-05-05T00:19:43.340Z,426.00
2023-05-05T00:20:43.423Z,424.00
2023-05-05T00:21:43.452Z,424.00
2023-05-05T00:22:43.467Z,426.00
2023-05-05T00:23:43.534Z,427.00
2023-05-05T00:24:43.605Z,427.00
2023-05-05T00:25:43.669Z,426.00
2023-05-05T00:26:43.679Z,426.00
2023-05-05T00:27:43.719Z,425.00
2023-05-05T00:28:43.772Z,424.00
2023-05-05T00:29:43.791Z,424.00
2023-05-05T00:30:43.840Z,421.00
2023-05-05T00:31:43.964Z,422.00
2023-05-05T00:32:43.996Z,423.00
2023-05-05T00:33:43.991Z,420.00
2023-05-05T00:34:44.056Z,418.00
2023-05-05T00:35:44.109Z,419.00
2023-05-05T00:36:44.147Z,421.00
2023-05-05T00:37:44.168Z,422.00
2023-05-05T00:38:44.279Z,422.00
2023-05-05T00:39:44.291Z,424.00
2023-05-05T00:40:44.349Z,421.00
2023-05-05T00:41:44.387Z,420.00
2023-05-05T00:42:44.428Z,418.00
2023-05-05T00:43:44.512Z,418.00
2023-05-05T00:44:44.555Z,419.00
2023-05-05T00:45:44.581Z,419.00
2023-05-05T00:46:44.704Z,418.00
2023-05-05T00:47:44.775Z,417.00
2023-05-05T00:48:44.761Z,417.00
2023-05-05T00:49:44.854Z,415.00
2023-05-05T00:50:44.922Z,416.00
2023-05-05T00:51:44.980Z,418.00
2023-05-05T00:52:44.977Z,422.00
2023-05-05T00:53:45.082Z,424.00
2023-05-05T00:54:45.102Z,424.00
2023-05-05T00:55:45.141Z,426.00
2023-05-05T00:56:45.203Z,427.00
2023-05-05T00:57:45.260Z,425.00
2023-05-05T00:58:45.284Z,423.00
2023-05-05T00:59:45.368Z,422.00
2023-05-05T01:00:45.427Z,423.00
2023-05-05T01:01:45.500Z,423.00
2023-05-05T01:02:45.615Z,423.00
2023-05-05T01:03:45.700Z,420.00
2023-05-05T01:04:45.637Z,421.00
2023-05-05T01:05:45.734Z,420.00
2023-05-05T01:06:45.778Z,419.00
2023-05-05T01:07:45.798Z,420.00
2023-05-05T01:08:45.890Z,420.00
2023-05-05T01:09:45.957Z,419.00
2023-05-05T01:10:46.027Z,420.00
2023-05-05T01:11:46.060Z,420.00
2023-05-05T01:12:46.122Z,421.00
2023-05-05T01:13:46.137Z,419.00
2023-05-05T01:14:46.216Z,420.00
2023-05-05T01:15:46.250Z,422.00
2023-05-05T01:16:46.351Z,422.00
2023-05-05T01:17:46.414Z,422.00
2023-05-05T01:18:46.494Z,422.00
2023-05-05T01:19:46.511Z,421.00
2023-05-05T01:20:46.606Z,421.00
2023-05-05T01:21:46.646Z,423.00
2023-05-05T01:22:46.686Z,425.00
2023-05-05T01:23:46.740Z,424.00
2023-05-05T01:24:46.830Z,423.00
2023-05-05T01:25:46.840Z,423.00
2023-05-05T01:26:46.920Z,422.00
2023-05-05T01:27:47.010Z,422.00
2023-05-05T01:28:47.031Z,420.00
2023-05-05T01:29:47.121Z,420.00
2023-05-05T01:30:47.172Z,420.00
2023-05-05T01:31:47.241Z,419.00
2023-05-05T01:32:47.400Z,418.00
2023-05-05T01:33:47.334Z,418.00
2023-05-05T01:34:47.421Z,419.00
2023-05-05T01:35:47.466Z,420.00
2023-05-05T01:36:47.529Z,421.00
2023-05-05T01:37:47.580Z,424.00
2023-05-05T01:38:47.644Z,423.00
2023-05-05T01:39:47.680Z,425.00
2023-05-05T01:40:47.765Z,423.00
2023-05-05T01:41:47.797Z,420.00
2023-05-05T01:42:47.871Z,421.00
2023-05-05T01:43:47.926Z,421.00
2023-05-05T01:44:48.071Z,421.00
2023-05-05T01:45:48.156Z,421.00
2023-05-05T01:46:48.125Z,420.00
2023-05-05T01:47:48.233Z,421.00
2023-05-05T01:48:48.222Z,421.00
2023-05-05T01:49:48.300Z,425.00
2023-05-05T01:50:48.375Z,428.00
2023-05-05T01:51:48.440Z,429.00
2023-05-05T01:52:48.484Z,430.00
2023-05-05T01:53:48.546Z,428.00
2023-05-05T01:54:48.616Z,428.00
2023-05-05T01:55:48.695Z,425.00
2023-05-05T01:56:48.716Z,425.00
2023-05-05T01:57:48.797Z,424.00
2023-05-05T01:58:48.840Z,423.00
2023-05-05T01:59:48.956Z,424.00
2023-05-05T02:00:48.955Z,424.00
2023-05-05T02:01:49.032Z,425.00
2023-05-05T02:02:49.327Z,425.00
2023-05-05T02:03:49.149Z,425.00
2023-05-05T02:04:49.220Z,425.00
2023-05-05T02:05:49.295Z,423.00
2023-05-05T02:06:49.367Z,424.00
2023-05-05T02:07:49.379Z,424.00
2023-05-05T02:08:49.459Z,423.00
2023-05-05T02:09:49.493Z,422.00
2023-05-05T02:10:49.611Z,421.00
2023-05-05T02:11:49.650Z,421.00
2023-05-05T02:12:49.713Z,423.00
2023-05-05T02:13:49.746Z,424.00
2023-05-05T02:14:49.843Z,424.00
2023-05-05T02:15:49.866Z,423.00
2023-05-05T02:16:49.915Z,422.00
2023-05-05T02:17:50.010Z,423.00
2023-05-05T02:18:50.076Z,424.00
2023-05-05T02:19:50.110Z,422.00
2023-05-05T02:20:50.193Z,423.00
2023-05-05T02:21:50.243Z,422.00
2023-05-05T02:22:50.266Z,422.00
2023-05-05T02:23:50.347Z,422.00
2023-05-05T02:24:50.348Z,420.00
2023-05-05T02:25:50.432Z,420.00
2023-05-05T02:26:50.465Z,420.00
2023-05-05T02:27:50.544Z,420.00
2023-05-05T02:28:50.549Z,421.00
2023-05-05T02:29:50.633Z,422.00
2023-05-05T02:30:50.669Z,422.00
2023-05-05T02:31:50.807Z,422.00
2023-05-05T02:32:50.820Z,424.00
2023-05-05T02:33:50.796Z,423.00
2023-05-05T02:34:50.834Z,422.00
2023-05-05T02:35:50.905Z,422.00
2023-05-05T02:36:50.941Z,423.00
2023-05-05T02:37:51.048Z,419.00
2023-05-05T02:38:51.028Z,419.00
2023-05-05T02:39:51.106Z,417.00
2023-05-05T02:40:51.171Z,418.00
2023-05-05T02:41:51.149Z,420.00
2023-05-05T02:42:51.263Z,420.00
2023-05-05T02:43:51.285Z,419.00
2023-05-05T02:44:51.269Z,422.00
2023-05-05T02:45:51.347Z,422.00
2023-05-05T02:46:51.409Z,423.00
2023-05-05T02:47:51.443Z,423.00
2023-05-05T02:48:51.546Z,420.00
2023-05-05T02:49:51.506Z,419.00
2023-05-05T02:50:51.557Z,420.00
2023-05-05T02:51:51.658Z,420.00
2023-05-05T02:52:51.669Z,419.00
2023-05-05T02:53:51.703Z,416.00
2023-05-05T02:54:51.755Z,415.00
2023-05-05T02:55:51.778Z,415.00
2023-05-05T02:56:51.838Z,416.00
2023-05-05T02:57:51.875Z,418.00
2023-05-05T02:58:51.884Z,417.00
2023-05-05T02:59:51.927Z,417.00
2023-05-05T03:00:51.994Z,416.00
2023-05-05T03:01:52.103Z,416.00
2023-05-05T03:02:52.181Z,415.00
2023-05-05T03:03:52.324Z,415.00
2023-05-05T03:04:52.170Z,415.00
2023-05-05T03:05:52.199Z,418.00
2023-05-05T03:06:52.254Z,417.00
2023-05-05T03:07:52.258Z,415.00
2023-05-05T03:08:52.313Z,415.00
2023-05-05T03:09:52.362Z,417.00
2023-05-05T03:10:52.380Z,418.00
2023-05-05T03:11:52.415Z,419.00
2023-05-05T03:12:52.539Z,419.00
2023-05-05T03:13:52.533Z,416.00
2023-05-05T03:14:52.546Z,414.00
2023-05-05T03:15:52.581Z,412.00
2023-05-05T03:16:52.592Z,411.00
2023-05-05T03:17:52.688Z,411.00
2023-05-05T03:18:52.626Z,410.00
2023-05-05T03:19:52.669Z,410.00
2023-05-05T03:20:52.701Z,409.00
2023-05-05T03:21:52.694Z,411.00
2023-05-05T03:22:52.764Z,411.00
2023-05-05T03:23:52.754Z,414.00
2023-05-05T03:24:52.783Z,413.00
2023-05-05T03:25:52.785Z,414.00
2023-05-05T03:26:52.787Z,413.00
2023-05-05T03:27:52.796Z,413.00
2023-05-05T03:28:52.829Z,415.00
2023-05-05T03:29:52.834Z,416.00
2023-05-05T03:30:52.846Z,416.00
2023-05-05T03:31:52.915Z,415.00
2023-05-05T03:32:52.994Z,415.00
2023-05-05T03:33:52.975Z,415.00
2023-05-05T03:34:53.010Z,415.00
2023-05-05T03:35:53.035Z,412.00
2023-05-05T03:36:53.031Z,413.00
2023-05-05T03:37:53.035Z,416.00
2023-05-05T03:38:53.095Z,416.00
2023-05-05T03:39:53.084Z,416.00
2023-05-05T03:40:53.093Z,417.00
2023-05-05T03:41:53.103Z,416.00
2023-05-05T03:42:53.151Z,416.00
2023-05-05T03:43:53.172Z,417.00
2023-05-05T03:44:53.212Z,416.00
2023-05-05T03:45:53.273Z,417.00
2023-05-05T03:46:53.197Z,414.00
2023-05-05T03:47:53.334Z,415.00
2023-05-05T03:48:53.320Z,416.00
2023-05-05T03:49:53.279Z,416.00
2023-05-05T03:50:53.293Z,417.00
2023-05-05T03:51:53.312Z,416.00
2023-05-05T03:52:53.343Z,416.00
2023-05-05T03:53:53.397Z,415.00
2023-05-05T03:54:53.360Z,415.00
2023-05-05T03:55:53.364Z,414.00
2023-05-05T03:56:53.357Z,416.00
2023-05-05T03:57:53.418Z,416.00
2023-05-05T03:58:53.425Z,418.00
2023-05-05T03:59:53.388Z,417.00
2023-05-05T04:00:53.436Z,416.00
2023-05-05T04:01:53.414Z,418.00
2023-05-05T04:02:53.485Z,415.00
2023-05-05T04:03:53.480Z,416.00
2023-05-05T04:04:53.430Z,419.00
2023-05-05T04:05:53.498Z,421.00
2023-05-05T04:06:53.433Z,421.00
2023-05-05T04:07:53.418Z,422.00
2023-05-05T04:08:53.437Z,422.00
2023-05-05T04:09:53.465Z,425.00
2023-05-05T04:10:53.466Z,426.00
2023-05-05T04:11:53.455Z,428.00
2023-05-05T04:12:53.480Z,431.00
2023-05-05T04:13:53.512Z,430.00
2023-05-05T04:14:53.459Z,432.00
2023-05-05T04:15:53.544Z,434.00
2023-05-05T04:16:53.455Z,435.00
2023-05-05T04:17:53.562Z,439.00
2023-05-05T04:18:53.494Z,440.00
2023-05-05T04:19:53.513Z,443.00
2023-05-05T04:20:53.511Z,444.00
2023-05-05T04:21:53.615Z,444.00
2023-05-05T04:22:53.529Z,446.00
2023-05-05T04:23:53.528Z,446.00
2023-05-05T04:24:53.576Z,448.00
2023-05-05T04:25:53.572Z,447.00
2023-05-05T04:26:53.575Z,445.00
2023-05-05T04:27:53.599Z,445.00
2023-05-05T04:28:53.635Z,444.00
2023-05-05T04:29:53.642Z,445.00
2023-05-05T04:30:53.765Z,446.00
2023-05-05T04:31:53.693Z,447.00
2023-05-05T04:32:53.812Z,447.00
2023-05-05T04:33:53.712Z,447.00
2023-05-05T04:34:53.697Z,448.00
2023-05-05T04:35:53.713Z,448.00
2023-05-05T04:36:53.753Z,448.00
2023-05-05T04:37:53.750Z,446.00
2023-05-05T04:38:53.846Z,445.00
2023-05-05T04:39:53.823Z,445.00
2023-05-05T04:40:53.746Z,447.00
2023-05-05T04:41:53.821Z,448.00
2023-05-05T04:42:53.838Z,449.00
2023-05-05T04:43:53.826Z,448.00
2023-05-05T04:44:53.773Z,449.00
2023-05-05T04:45:53.797Z,449.00
2023-05-05T04:46:53.919Z,449.00
2023-05-05T04:47:53.819Z,447.00
2023-05-05T04:48:53.764Z,445.00
2023-05-05T04:49:53.769Z,442.00
2023-05-05T04:50:53.774Z,441.00
2023-05-05T04:51:53.829Z,440.00
2023-05-05T04:52:53.786Z,441.00
2023-05-05T04:53:53.792Z,441.00
2023-05-05T04:54:53.797Z,442.00
2023-05-05T04:55:53.812Z,446.00
2023-05-05T04:56:53.816Z,445.00
2023-05-05T04:57:53.784Z,448.00
2023-05-05T04:58:53.832Z,449.00
2023-05-05T04:59:53.841Z,449.00
2023-05-05T05:00:53.836Z,447.00
2023-05-05T05:01:53.823Z,444.00
2023-05-05T05:02:53.883Z,442.00
2023-05-05T05:03:53.947Z,442.00
2023-05-05T05:04:53.811Z,441.00
2023-05-05T05:05:53.834Z,440.00
2023-05-05T05:06:53.815Z,439.00
2023-05-05T05:07:53.818Z,438.00
2023-05-05T05:08:53.832Z,440.00
2023-05-05T05:09:53.840Z,441.00
2023-05-05T05:10:53.837Z,442.00
2023-05-05T05:11:53.852Z,443.00
2023-05-05T05:12:53.905Z,440.00
2023-05-05T05:13:53.829Z,439.00
2023-05-05T05:14:53.875Z,440.00
2023-05-05T05:15:53.841Z,441.00
2023-05-05T05:16:53.897Z,442.00
2023-05-05T05:17:53.920Z,441.00
2023-05-05T05:18:53.902Z,441.00
2023-05-05T05:19:53.874Z,444.00
2023-05-05T05:20:53.875Z,445.00
2023-05-05T05:21:53.875Z,448.00
2023-05-05T05:22:54.015Z,448.00
2023-05-05T05:23:53.894Z,446.00
2023-05-05T05:24:53.909Z,445.00
2023-05-05T05:25:53.865Z,446.00
2023-05-05T05:26:53.942Z,446.00
2023-05-05T05:28:08.343Z,448.00
2023-05-05T05:28:54.897Z,447.00
2023-05-05T05:29:53.838Z,444.00
2023-05-05T05:30:53.849Z,443.00
2023-05-05T05:31:53.894Z,442.00
2023-05-05T05:32:53.899Z,443.00
2023-05-05T05:33:53.856Z,458.00
2023-05-05T05:34:53.831Z,485.00
2023-05-05T05:35:53.815Z,492.00
2023-05-05T05:36:53.815Z,497.00
2023-05-05T05:37:53.823Z,545.00
2023-05-05T05:38:53.790Z,551.00
2023-05-05T05:39:53.856Z,562.00
2023-05-05T05:40:53.801Z,565.00
2023-05-05T05:41:53.816Z,566.00
2023-05-05T05:42:53.819Z,567.00
2023-05-05T05:43:53.769Z,568.00
2023-05-05T05:44:54.185Z,580.00
2023-05-05T05:45:53.794Z,587.00
2023-05-05T05:46:53.734Z,616.00
2023-05-05T05:47:53.828Z,642.00
2023-05-05T05:48:53.816Z,630.00
2023-05-05T05:49:53.785Z,632.00
2023-05-05T05:50:53.861Z,641.00
2023-05-05T05:51:53.780Z,656.00
2023-05-05T05:52:53.746Z,670.00
2023-05-05T05:53:53.824Z,682.00
2023-05-05T05:54:53.899Z,696.00
2023-05-05T05:55:53.998Z,706.00
2023-05-05T05:56:54.010Z,713.00
2023-05-05T05:57:54.030Z,730.00
2023-05-05T05:58:54.053Z,739.00
2023-05-05T05:59:54.075Z,745.00
2023-05-05T06:00:54.111Z,748.00
2023-05-05T06:01:54.170Z,756.00
2023-05-05T06:02:54.315Z,755.00
2023-05-05T06:03:54.239Z,755.00
2023-05-05T06:04:54.159Z,761.00
2023-05-05T06:05:54.157Z,769.00
2023-05-05T06:06:54.163Z,775.00
2023-05-05T06:07:54.208Z,783.00
2023-05-05T06:08:54.208Z,792.00
2023-05-05T06:09:54.171Z,797.00
2023-05-05T06:10:54.217Z,805.00
2023-05-05T06:11:54.217Z,819.00
2023-05-05T06:12:54.220Z,825.00
2023-05-05T06:13:54.226Z,824.00
2023-05-05T06:14:54.239Z,923.00
2023-05-05T06:15:54.235Z,869.00
2023-05-05T06:16:54.281Z,855.00
2023-05-05T06:17:54.341Z,849.00
2023-05-05T06:18:54.315Z,849.00
2023-05-05T06:19:54.648Z,846.00
2023-05-05T06:20:54.440Z,842.00
2023-05-05T06:21:54.534Z,843.00
2023-05-05T06:22:54.618Z,840.00
2023-05-05T06:23:54.651Z,839.00
2023-05-05T06:24:54.668Z,840.00
2023-05-05T06:25:54.727Z,841.00
2023-05-05T06:26:54.759Z,844.00
2023-05-05T06:27:54.808Z,843.00
2023-05-05T06:28:54.916Z,848.00
2023-05-05T06:29:54.918Z,844.00
2023-05-05T06:30:54.964Z,841.00
2023-05-05T06:31:55.062Z,839.00
2023-05-05T06:32:55.079Z,840.00
2023-05-05T06:33:55.098Z,843.00
2023-05-05T06:34:55.131Z,845.00
2023-05-05T06:35:55.214Z,835.00
2023-05-05T06:36:55.232Z,830.00
2023-05-05T06:37:55.273Z,823.00
2023-05-05T06:38:55.293Z,827.00
2023-05-05T06:39:55.365Z,775.00
2023-05-05T06:40:55.451Z,762.00
2023-05-05T06:41:55.460Z,755.00
2023-05-05T06:42:55.506Z,752.00
2023-05-05T06:43:55.517Z,742.00
2023-05-05T06:44:55.567Z,746.00
2023-05-05T06:45:55.648Z,750.00
2023-05-05T06:46:55.729Z,752.00
2023-05-05T06:47:55.866Z,749.00
2023-05-05T06:48:55.827Z,746.00
2023-05-05T06:49:55.846Z,743.00
2023-05-05T06:50:55.943Z,738.00
2023-05-05T06:51:55.966Z,736.00
2023-05-05T06:52:56.060Z,734.00
2023-05-05T06:53:56.094Z,736.00
2023-05-05T06:54:56.171Z,738.00
2023-05-05T06:55:56.208Z,738.00
2023-05-05T06:56:58.183Z,736.00
2023-05-05T06:57:56.294Z,739.00
2023-05-05T06:58:56.242Z,1047.00
2023-05-05T06:59:56.697Z,760.00
2023-05-05T07:00:56.234Z,743.00
2023-05-05T07:01:56.569Z,738.00
2023-05-05T07:02:56.236Z,736.00
2023-05-05T07:03:56.208Z,734.00
2023-05-05T07:04:56.242Z,732.00
2023-05-05T07:05:56.173Z,733.00
2023-05-05T07:06:56.164Z,732.00
2023-05-05T07:07:56.195Z,731.00
2023-05-05T07:08:56.162Z,732.00
2023-05-05T07:09:56.160Z,734.00
2023-05-05T07:10:56.204Z,737.00
2023-05-05T07:11:56.162Z,736.00
2023-05-05T07:12:56.457Z,738.00
2023-05-05T07:13:56.495Z,738.00
2023-05-05T07:14:56.129Z,737.00
2023-05-05T07:15:56.141Z,735.00
2023-05-05T07:16:56.130Z,738.00
2023-05-05T07:17:56.145Z,741.00
2023-05-05T07:18:56.115Z,745.00
2023-05-05T07:19:56.080Z,748.00
2023-05-05T07:20:56.075Z,751.00
2023-05-05T07:21:56.069Z,754.00
2023-05-05T07:22:56.083Z,761.00
2023-05-05T07:23:56.090Z,765.00
2023-05-05T07:24:56.052Z,772.00
2023-05-05T07:25:56.031Z,779.00
2023-05-05T07:26:56.036Z,783.00
2023-05-05T07:27:56.038Z,779.00
2023-05-05T07:28:56.117Z,779.00
2023-05-05T07:29:56.050Z,777.00
2023-05-05T07:30:56.008Z,779.00
2023-05-05T07:31:56.049Z,786.00
2023-05-05T07:32:55.995Z,748.00
2023-05-05T07:33:56.001Z,664.00
2023-05-05T07:34:55.967Z,662.00
2023-05-05T07:35:55.979Z,662.00
2023-05-05T07:36:55.952Z,615.00
2023-05-05T07:37:55.949Z,610.00
2023-05-05T07:38:55.994Z,609.00
2023-05-05T07:39:55.949Z,612.00
2023-05-05T07:40:55.959Z,611.00
2023-05-05T07:41:55.963Z,609.00
2023-05-05T07:42:55.935Z,605.00
2023-05-05T07:43:55.924Z,602.00
2023-05-05T07:44:56.067Z,595.00
2023-05-05T07:45:55.948Z,588.00
2023-05-05T07:46:55.892Z,583.00
2023-05-05T07:47:55.912Z,580.00
2023-05-05T07:48:55.855Z,579.00
2023-05-05T07:49:55.904Z,576.00
2023-05-05T07:50:55.980Z,574.00
2023-05-05T07:51:56.011Z,571.00
2023-05-05T07:53:56.146Z,565.00
2023-05-05T07:54:56.191Z,565.00
2023-05-05T07:55:56.244Z,562.00
2023-05-05T07:56:56.304Z,557.00
2023-05-05T07:57:56.319Z,553.00
2023-05-05T07:58:56.389Z,552.00
2023-05-05T07:59:56.395Z,551.00
2023-05-05T08:00:56.492Z,549.00
2023-05-05T08:01:56.451Z,547.00
2023-05-05T08:02:56.560Z,544.00
2023-05-05T08:03:56.638Z,544.00
2023-05-05T08:04:56.567Z,540.00
2023-05-05T08:05:56.600Z,540.00
2023-05-05T08:06:56.643Z,539.00
2023-05-05T08:07:56.662Z,534.00
2023-05-05T08:08:56.647Z,532.00
2023-05-05T08:09:56.688Z,530.00
2023-05-05T08:10:56.722Z,525.00
2023-05-05T08:11:56.720Z,522.00
2023-05-05T08:12:56.783Z,522.00
2023-05-05T08:13:56.802Z,521.00
2023-05-05T08:14:56.802Z,520.00
2023-05-05T08:15:56.851Z,519.00
2023-05-05T08:16:56.907Z,517.00
2023-05-05T08:17:56.870Z,517.00
2023-05-05T08:18:56.874Z,516.00
2023-05-05T08:19:56.863Z,515.00
2023-05-05T08:20:57.059Z,515.00
2023-05-05T08:21:57.759Z,517.00
2023-05-05T08:22:56.919Z,518.00
2023-05-05T08:23:57.004Z,518.00
2023-05-05T08:24:56.938Z,516.00
2023-05-05T08:25:56.966Z,515.00
2023-05-05T08:26:56.950Z,514.00
2023-05-05T08:27:56.987Z,586.00
2023-05-05T08:28:56.971Z,564.00
2023-05-05T08:29:57.025Z,549.00
2023-05-05T08:30:57.034Z,535.00
2023-05-05T08:31:57.275Z,533.00
2023-05-05T08:32:57.220Z,535.00
2023-05-05T08:33:57.172Z,566.00
2023-05-05T08:34:57.238Z,567.00
2023-05-05T08:35:57.300Z,560.00
2023-05-05T08:36:57.354Z,553.00
2023-05-05T08:37:59.286Z,550.00
2023-05-05T08:38:57.491Z,552.00
2023-05-05T08:39:57.522Z,550.00
2023-05-05T08:40:57.566Z,558.00
2023-05-05T08:41:57.606Z,560.00
2023-05-05T08:42:57.648Z,553.00
2023-05-05T08:43:57.706Z,549.00
2023-05-05T08:44:59.097Z,548.00
2023-05-05T08:45:57.811Z,546.00
2023-05-05T08:46:57.922Z,540.00
2023-05-05T08:47:57.907Z,535.00
2023-05-05T08:48:57.943Z,526.00
2023-05-05T08:49:57.881Z,523.00
2023-05-05T08:50:59.846Z,520.00
2023-05-05T08:51:57.971Z,518.00
2023-05-05T08:52:58.044Z,514.00
2023-05-05T08:53:58.083Z,510.00
2023-05-05T08:54:58.117Z,506.00
2023-05-05T08:55:58.160Z,503.00
2023-05-05T08:56:58.208Z,494.00
2023-05-05T08:57:58.343Z,495.00
2023-05-05T08:58:58.328Z,496.00
2023-05-05T08:59:58.373Z,498.00
2023-05-05T09:00:58.482Z,498.00
2023-05-05T09:01:58.493Z,500.00
2023-05-05T09:02:58.778Z,498.00
2023-05-05T09:03:58.681Z,495.00
2023-05-05T09:04:58.743Z,496.00
2023-05-05T09:05:58.736Z,497.00
2023-05-05T09:06:58.789Z,499.00
2023-05-05T09:07:58.837Z,504.00
2023-05-05T09:08:59.739Z,509.00
2023-05-05T09:09:58.906Z,509.00
2023-05-05T09:10:58.973Z,511.00
2023-05-05T09:11:59.053Z,515.00
2023-05-05T09:12:59.042Z,518.00
2023-05-05T09:13:59.070Z,520.00
2023-05-05T09:14:59.412Z,523.00
2023-05-05T09:15:59.099Z,526.00
2023-05-05T09:16:59.145Z,528.00
2023-05-05T09:17:59.158Z,527.00
2023-05-05T09:18:59.140Z,527.00
2023-05-05T09:19:59.150Z,529.00
2023-05-05T09:20:59.671Z,530.00
2023-05-05T09:21:59.189Z,534.00
2023-05-05T09:22:59.205Z,528.00
2023-05-05T09:24:04.930Z,522.00
2023-05-05T09:25:00.179Z,515.00
2023-05-05T09:25:59.172Z,511.00
2023-05-05T09:26:59.204Z,508.00
2023-05-05T09:27:59.152Z,507.00
2023-05-05T09:28:59.192Z,507.00
2023-05-05T09:29:59.150Z,505.00
2023-05-05T09:30:59.159Z,552.00
2023-05-05T09:31:59.139Z,523.00
2023-05-05T09:32:59.175Z,513.00
2023-05-05T09:33:59.127Z,512.00
2023-05-05T09:34:59.112Z,508.00
2023-05-05T09:35:59.210Z,505.00
2023-05-05T09:36:59.150Z,509.00
2023-05-05T09:37:59.090Z,512.00
2023-05-05T09:38:59.213Z,524.00
2023-05-05T09:39:59.092Z,536.00
2023-05-05T09:40:59.079Z,546.00
2023-05-05T09:41:59.063Z,559.00
2023-05-05T09:42:59.067Z,571.00
2023-05-05T09:43:59.047Z,572.00
2023-05-05T09:44:59.977Z,575.00
2023-05-05T09:45:59.090Z,633.00
2023-05-05T09:46:59.016Z,592.00
2023-05-05T09:48:00.581Z,563.00
2023-05-05T09:48:59.133Z,554.00
2023-05-05T09:49:59.160Z,548.00
2023-05-05T09:50:59.224Z,544.00
2023-05-05T09:51:59.297Z,541.00
2023-05-05T09:52:59.436Z,537.00
2023-05-05T09:53:59.407Z,533.00
2023-05-05T09:54:59.497Z,530.00
2023-05-05T09:55:59.544Z,532.00
2023-05-05T09:56:59.561Z,537.00
2023-05-05T09:57:59.671Z,540.00
2023-05-05T09:58:59.720Z,543.00
2023-05-05T09:59:59.758Z,547.00
2023-05-05T10:00:59.795Z,555.00
2023-05-05T10:01:59.816Z,565.00
2023-05-05T10:02:59.864Z,565.00
2023-05-05T10:03:59.908Z,561.00
2023-05-05T10:05:01.623Z,557.00
2023-05-05T10:05:59.960Z,560.00
2023-05-05T10:06:59.951Z,556.00
2023-05-05T10:07:59.998Z,553.00
2023-05-05T10:09:00.086Z,546.00
2023-05-05T10:10:00.064Z,542.00
2023-05-05T10:11:00.067Z,537.00
2023-05-05T10:12:00.085Z,535.00
2023-05-05T10:13:00.164Z,529.00
2023-05-05T10:14:00.197Z,528.00
2023-05-05T10:15:00.170Z,527.00
2023-05-05T10:16:00.242Z,524.00
2023-05-05T10:17:00.194Z,522.00
2023-05-05T10:18:07.687Z,520.00
2023-05-05T10:19:01.199Z,519.00
2023-05-05T10:20:00.261Z,516.00
2023-05-05T10:21:00.262Z,516.00
2023-05-05T10:22:00.165Z,517.00
2023-05-05T10:23:00.164Z,516.00
2023-05-05T10:24:00.169Z,517.00
2023-05-05T10:25:00.514Z,524.00
2023-05-05T10:26:00.158Z,538.00
2023-05-05T10:27:00.154Z,540.00
2023-05-05T10:28:00.770Z,549.00
2023-05-05T10:29:00.148Z,554.00
2023-05-05T10:30:00.168Z,561.00
2023-05-05T10:31:00.140Z,565.00
2023-05-05T10:32:00.150Z,567.00
2023-05-05T10:34:00.360Z,571.00
2023-05-05T10:35:00.093Z,574.00
2023-05-05T10:36:00.102Z,572.00
2023-05-05T10:37:00.071Z,565.00
2023-05-05T10:38:00.088Z,560.00
2023-05-05T10:39:00.051Z,555.00
2023-05-05T10:40:00.066Z,552.00
2023-05-05T10:41:00.139Z,545.00
2023-05-05T10:42:00.057Z,538.00
2023-05-05T10:43:00.043Z,529.00
2023-05-05T10:44:01.507Z,527.00
2023-05-05T10:45:00.060Z,529.00
2023-05-05T10:46:00.008Z,533.00
2023-05-05T10:46:59.999Z,536.00
2023-05-05T10:48:00.002Z,537.00
2023-05-05T10:49:00.017Z,539.00
2023-05-05T10:49:59.984Z,540.00
2023-05-05T10:51:00.012Z,539.00
2023-05-05T10:51:59.960Z,537.00
2023-05-05T10:52:59.971Z,533.00
2023-05-05T10:53:59.984Z,532.00
2023-05-05T10:54:59.962Z,530.00
2023-05-05T10:55:59.950Z,526.00
2023-05-05T10:57:00.028Z,518.00
2023-05-05T10:57:59.960Z,520.00
2023-05-05T10:59:00.811Z,533.00
2023-05-05T10:59:59.913Z,533.00
2023-05-05T11:00:59.939Z,535.00
2023-05-05T11:01:59.946Z,538.00
2023-05-05T11:02:59.995Z,542.00
2023-05-05T11:03:59.936Z,545.00
2023-05-05T11:04:59.905Z,543.00
2023-05-05T11:05:59.901Z,539.00
2023-05-05T11:06:59.911Z,537.00
2023-05-05T11:07:59.889Z,535.00
2023-05-05T11:08:59.846Z,533.00
2023-05-05T11:09:59.885Z,544.00
2023-05-05T11:10:59.894Z,549.00
2023-05-05T11:11:59.874Z,550.00
2023-05-05T11:12:59.927Z,547.00
2023-05-05T11:13:59.833Z,541.00
2023-05-05T11:14:59.864Z,537.00
2023-05-05T11:15:59.828Z,529.00
2023-05-05T11:16:59.842Z,525.00
2023-05-05T11:17:59.888Z,521.00
2023-05-05T11:18:59.801Z,518.00
2023-05-05T11:19:59.791Z,514.00
2023-05-05T11:20:59.857Z,509.00
2023-05-05T11:21:59.786Z,506.00
2023-05-05T11:22:59.786Z,502.00
2023-05-05T11:23:59.780Z,500.00
2023-05-05T11:25:00.228Z,497.00
2023-05-05T11:25:59.834Z,494.00
2023-05-05T11:26:59.766Z,491.00
2023-05-05T11:27:59.794Z,486.00
2023-05-05T11:28:59.872Z,484.00
2023-05-05T11:29:59.753Z,481.00
2023-05-05T11:30:59.955Z,477.00
2023-05-05T11:31:59.724Z,474.00
2023-05-05T11:32:59.748Z,471.00
2023-05-05T11:33:59.811Z,468.00
2023-05-05T11:34:59.707Z,464.00
2023-05-05T11:35:59.693Z,460.00
2023-05-05T11:36:59.671Z,458.00
2023-05-05T11:37:59.856Z,459.00
2023-05-05T11:38:59.696Z,456.00
2023-05-05T11:39:59.703Z,454.00
2023-05-05T11:40:59.687Z,452.00
2023-05-05T11:41:59.675Z,451.00
2023-05-05T11:42:59.668Z,450.00
2023-05-05T11:43:59.696Z,448.00
2023-05-05T11:44:59.754Z,448.00
2023-05-05T11:45:59.753Z,448.00
2023-05-05T11:46:59.679Z,450.00
2023-05-05T11:47:59.779Z,448.00
2023-05-05T11:48:59.664Z,448.00
2023-05-05T11:49:59.663Z,448.00
2023-05-05T11:50:59.701Z,448.00
2023-05-05T11:51:59.688Z,446.00
2023-05-05T11:52:59.711Z,446.00
2023-05-05T11:53:59.746Z,444.00
2023-05-05T11:54:59.766Z,446.00
2023-05-05T11:55:59.786Z,443.00
2023-05-05T11:56:59.820Z,442.00
2023-05-05T11:57:59.898Z,443.00
2023-05-05T11:58:59.981Z,443.00
2023-05-05T12:00:00.052Z,440.00
2023-05-05T12:01:00.198Z,439.00
2023-05-05T12:02:00.143Z,439.00
2023-05-05T12:03:00.278Z,441.00
2023-05-05T12:04:00.399Z,441.00
2023-05-05T12:05:00.417Z,441.00
2023-05-05T12:06:00.363Z,442.00
2023-05-05T12:07:00.453Z,442.00
2023-05-05T12:08:00.479Z,443.00
2023-05-05T12:09:00.558Z,442.00
2023-05-05T12:10:00.610Z,441.00
2023-05-05T12:11:00.627Z,440.00
2023-05-05T12:12:00.675Z,437.00
2023-05-05T12:13:00.843Z,439.00
2023-05-05T12:14:00.778Z,441.00
2023-05-05T12:15:00.815Z,441.00
2023-05-05T12:16:00.936Z,443.00
2023-05-05T12:17:00.998Z,444.00
2023-05-05T12:18:03.026Z,445.00
2023-05-05T12:19:01.028Z,446.00
2023-05-05T12:20:01.044Z,445.00
2023-05-05T12:21:01.098Z,443.00
2023-05-05T12:22:01.146Z,441.00
2023-05-05T12:23:01.193Z,440.00
2023-05-05T12:24:01.194Z,439.00
2023-05-05T12:25:01.272Z,437.00
2023-05-05T12:26:01.318Z,436.00
2023-05-05T12:27:01.335Z,436.00
2023-05-05T12:28:01.365Z,437.00
2023-05-05T12:29:01.425Z,437.00
2023-05-05T12:30:01.444Z,438.00
2023-05-05T12:31:01.512Z,438.00